Time;durP1;ratioP1;P1;durP2;ratioP2;P2;SDS_P1;SDS_P2;PMS_P1;PMS_P2;Temp;Humidity;BMP_temperature;BMP_pressure;BME280_temperature;BME280_humidity;BME280_pressure;Samples;Min_cycle;Max_cycle;Signal;HPM_P1;HPM_P2
2021/12/08 00:01:02;;;;;;;5.82;2.30;;;;;;;;;;5018447;28;20030;-75
2021/12/08 00:03:30;;;;;;;4.07;2.40;;;;;;;;;;5019241;28;20080;-76
2021/12/08 00:05:56;;;;;;;5.97;3.28;;;;;;;;;;5018239;28;20014;-78
2021/12/08 00:08:24;;;;;;;5.28;2.75;;;;;;;;;;5018428;28;20045;-74
2021/12/08 00:13:24;;;;;;;5.78;2.88;;;;;;;;;;5018819;28;20030;-75
2021/12/08 00:15:52;;;;;;;6.63;2.30;;;;;;;;;;5018023;28;20034;-76
2021/12/08 00:18:22;;;;;;;5.47;2.40;;;;;;;;;;5018430;28;20034;-76
2021/12/08 00:20:48;;;;;;;5.53;2.30;;;;;;;;;;5018176;28;20021;-76
2021/12/08 00:23:15;;;;;;;4.85;2.20;;;;;;;;;;5017720;28;20075;-74
2021/12/08 00:25:42;;;;;;;5.70;2.30;;;;;;;;;;5019033;28;20018;-76
2021/12/08 00:28:08;;;;;;;6.63;2.60;;;;;;;;;;5017593;28;20029;-75
2021/12/08 00:30:35;;;;;;;6.15;2.80;;;;;;;;;;5019058;28;20033;-73
2021/12/08 00:33:01;;;;;;;8.98;2.92;;;;;;;;;;5019590;28;20026;-76
2021/12/08 00:35:28;;;;;;;7.18;2.40;;;;;;;;;;5017746;28;20043;-76
2021/12/08 00:37:55;;;;;;;5.72;2.88;;;;;;;;;;5017783;28;20066;-76
2021/12/08 00:40:22;;;;;;;7.82;2.92;;;;;;;;;;5017949;28;20453;-75
2021/12/08 00:42:49;;;;;;;7.03;2.38;;;;;;;;;;5029095;28;20057;-76
2021/12/08 00:45:17;;;;;;;7.32;2.58;;;;;;;;;;5015898;28;20022;-76
2021/12/08 00:47:44;;;;;;;4.90;2.10;;;;;;;;;;5018005;28;20017;-76
2021/12/08 00:50:11;;;;;;;4.55;2.90;;;;;;;;;;5018139;28;20515;-75
2021/12/08 00:52:37;;;;;;;5.32;2.13;;;;;;;;;;5024297;28;20085;-76
2021/12/08 00:55:06;;;;;;;5.32;2.10;;;;;;;;;;5017592;28;20026;-74
2021/12/08 00:57:32;;;;;;;5.25;2.10;;;;;;;;;;5017699;28;20030;-75
2021/12/08 00:59:58;;;;;;;3.67;1.88;;;;;;;;;;5017640;28;20104;-76
2021/12/08 01:02:24;;;;;;;4.45;2.13;;;;;;;;;;5024606;28;20029;-77
2021/12/08 01:04:50;;;;;;;5.15;2.00;;;;;;;;;;5037247;28;20017;-76
2021/12/08 01:07:16;;;;;;;7.10;1.98;;;;;;;;;;5037498;28;20036;-76
2021/12/08 01:09:42;;;;;;;6.75;2.10;;;;;;;;;;5021319;28;20033;-75
2021/12/08 01:12:08;;;;;;;4.20;2.15;;;;;;;;;;5017182;28;20057;-74
2021/12/08 01:14:35;;;;;;;6.93;2.50;;;;;;;;;;5017395;28;20654;-75
2021/12/08 01:17:03;;;;;;;4.07;1.92;;;;;;;;;;5017149;28;20112;-75
2021/12/08 01:19:29;;;;;;;5.78;2.30;;;;;;;;;;5017104;28;20095;-74
2021/12/08 01:21:55;;;;;;;3.95;1.92;;;;;;;;;;5030891;28;20032;-77
2021/12/08 01:24:21;;;;;;;8.00;3.60;;;;;;;;;;5017111;28;20014;-76
2021/12/08 01:26:48;;;;;;;6.00;2.00;;;;;;;;;;5017861;28;20022;-76
2021/12/08 01:29:15;;;;;;;5.47;1.77;;;;;;;;;;5018846;28;20025;-78
2021/12/08 01:31:43;;;;;;;4.95;1.52;;;;;;;;;;5016908;28;20473;-77
2021/12/08 01:34:10;;;;;;;3.90;2.00;;;;;;;;;;5017828;28;20022;-77
2021/12/08 01:36:37;;;;;;;2.97;1.83;;;;;;;;;;5017229;28;20467;-73
2021/12/08 01:39:04;;;;;;;7.53;2.13;;;;;;;;;;5017150;28;20029;-75
2021/12/08 01:41:31;;;;;;;6.65;1.77;;;;;;;;;;5016913;28;20076;-77
2021/12/08 01:46:41;;;;;;;5.60;2.60;;;;;;;;;;5016583;28;20088;-74
2021/12/08 01:49:07;;;;;;;6.57;2.08;;;;;;;;;;5015725;28;20037;-76
2021/12/08 01:51:34;;;;;;;6.60;1.75;;;;;;;;;;5016560;28;20076;-76
2021/12/08 01:54:02;;;;;;;1.45;1.35;;;;;;;;;;5016724;28;20038;-74
2021/12/08 01:56:28;;;;;;;3.70;1.80;;;;;;;;;;5016686;28;20030;-77
2021/12/08 01:58:55;;;;;;;7.55;2.95;;;;;;;;;;5020413;28;20028;-76
2021/12/08 02:01:22;;;;;;;4.50;2.33;;;;;;;;;;5037163;28;20021;-75
2021/12/08 02:03:48;;;;;;;2.58;1.70;;;;;;;;;;5024652;28;20022;-77
2021/12/08 02:06:15;;;;;;;5.05;1.50;;;;;;;;;;5016691;28;20026;-76
2021/12/08 02:08:42;;;;;;;2.15;1.48;;;;;;;;;;5014934;28;20052;-77
2021/12/08 02:11:08;;;;;;;1.65;1.40;;;;;;;;;;5016463;28;20034;-74
2021/12/08 02:13:38;;;;;;;1.88;1.45;;;;;;;;;;5015485;28;20029;-77
2021/12/08 02:16:07;;;;;;;2.42;1.80;;;;;;;;;;5016137;28;20030;-77
2021/12/08 02:18:34;;;;;;;1.40;1.30;;;;;;;;;;5015925;28;20029;-77
2021/12/08 02:21:01;;;;;;;1.17;1.17;;;;;;;;;;5017178;28;20086;-74
2021/12/08 02:23:27;;;;;;;1.90;1.40;;;;;;;;;;5023370;28;20022;-77
2021/12/08 02:25:53;;;;;;;1.98;1.45;;;;;;;;;;5016253;28;20018;-77
2021/12/08 02:28:19;;;;;;;1.50;1.40;;;;;;;;;;5016387;28;20388;-75
2021/12/08 02:30:54;;;;;;;3.63;1.20;;;;;;;;;;5016751;28;20057;-77
2021/12/08 02:47:17;;;;;;;2.45;1.35;;;;;;;;;;5015877;28;20116;-77
2021/12/08 02:49:43;;;;;;;2.17;1.42;;;;;;;;;;5015883;28;20113;-74
2021/12/08 02:52:11;;;;;;;3.03;1.48;;;;;;;;;;5016061;28;20037;-75
2021/12/08 02:54:39;;;;;;;2.25;1.55;;;;;;;;;;5016359;28;20034;-76
2021/12/08 02:57:05;;;;;;;3.10;1.50;;;;;;;;;;5016512;28;20100;-76
2021/12/08 02:59:32;;;;;;;2.38;1.30;;;;;;;;;;5017489;28;20022;-79
2021/12/08 03:01:58;;;;;;;5.53;1.92;;;;;;;;;;5020784;28;20056;-77
2021/12/08 03:04:24;;;;;;;5.22;1.58;;;;;;;;;;5020694;28;20025;-73
2021/12/08 03:06:50;;;;;;;4.22;2.58;;;;;;;;;;5020694;28;20535;-76
2021/12/08 03:09:16;;;;;;;3.85;1.50;;;;;;;;;;5020189;28;20022;-76
2021/12/08 03:11:42;;;;;;;1.38;1.30;;;;;;;;;;5020941;28;20022;-74
2021/12/08 03:14:11;;;;;;;3.08;1.42;;;;;;;;;;5019126;28;20033;-76
2021/12/08 03:16:39;;;;;;;7.05;1.73;;;;;;;;;;5020320;28;20026;-76
2021/12/08 03:19:05;;;;;;;3.25;1.60;;;;;;;;;;5020289;28;20060;-77
2021/12/08 03:21:32;;;;;;;4.68;1.33;;;;;;;;;;5020828;28;20380;-74
2021/12/08 03:24:13;;;;;;;1.63;1.25;;;;;;;;;;5019781;28;20399;-77
2021/12/08 03:27:30;;;;;;;2.88;1.60;;;;;;;;;;5020455;28;20029;-77
2021/12/08 03:29:39;;;;;;;6.75;1.80;;;;;;;;;;5010456;28;20041;-75
2021/12/08 03:32:09;;;;;;;8.10;2.78;;;;;;;;;;5020451;28;20033;-74
2021/12/08 03:34:39;;;;;;;2.95;1.63;;;;;;;;;;5020197;28;20026;-75
2021/12/08 03:37:06;;;;;;;4.78;1.80;;;;;;;;;;5020310;28;20042;-75
2021/12/08 03:39:33;;;;;;;3.80;1.80;;;;;;;;;;5020195;28;20160;-77
2021/12/08 03:41:59;;;;;;;5.00;1.95;;;;;;;;;;5020706;28;20032;-76
2021/12/08 03:44:25;;;;;;;2.15;1.95;;;;;;;;;;5020147;28;20389;-76
2021/12/08 03:46:54;;;;;;;4.95;1.92;;;;;;;;;;5019609;28;20093;-77
2021/12/08 03:49:20;;;;;;;4.75;1.67;;;;;;;;;;5020020;28;20030;-76
2021/12/08 03:51:47;;;;;;;5.97;1.88;;;;;;;;;;5021583;28;20025;-73
2021/12/08 03:54:13;;;;;;;4.03;1.83;;;;;;;;;;5031304;28;20392;-79
2021/12/08 03:56:39;;;;;;;4.72;2.17;;;;;;;;;;5024257;28;20041;-78
2021/12/08 03:59:06;;;;;;;6.85;2.17;;;;;;;;;;5020605;28;20026;-74
2021/12/08 04:01:33;;;;;;;7.35;1.90;;;;;;;;;;5019585;28;20054;-77
2021/12/08 04:04:05;;;;;;;3.92;1.80;;;;;;;;;;5021302;28;20104;-76
2021/12/08 04:06:39;;;;;;;5.10;2.10;;;;;;;;;;5021030;28;20014;-78
2021/12/08 04:09:13;;;;;;;10.55;2.35;;;;;;;;;;5020835;28;20026;-77
2021/12/08 04:11:39;;;;;;;7.07;2.10;;;;;;;;;;5019638;28;20033;-74
2021/12/08 04:14:07;;;;;;;7.63;2.25;;;;;;;;;;5026354;28;20025;-76
2021/12/08 04:16:36;;;;;;;4.25;2.10;;;;;;;;;;5040767;28;20476;-74
2021/12/08 04:19:03;;;;;;;15.98;2.10;;;;;;;;;;5022579;28;20455;-76
2021/12/08 04:21:30;;;;;;;7.00;2.70;;;;;;;;;;5020479;28;20030;-75
2021/12/08 04:23:57;;;;;;;5.80;1.80;;;;;;;;;;5019292;28;20033;-75
2021/12/08 04:26:28;;;;;;;3.97;1.70;;;;;;;;;;5020904;28;20025;-75
2021/12/08 04:28:56;;;;;;;3.63;1.73;;;;;;;;;;5021402;28;20057;-73
2021/12/08 04:31:24;;;;;;;4.88;1.75;;;;;;;;;;5019120;28;20393;-74
2021/12/08 04:33:55;;;;;;;3.90;1.90;;;;;;;;;;5023033;28;20029;-78
2021/12/08 04:36:23;;;;;;;2.30;2.10;;;;;;;;;;5040776;28;20464;-77
2021/12/08 04:38:54;;;;;;;3.22;1.70;;;;;;;;;;5036007;28;20026;-77
2021/12/08 04:41:28;;;;;;;3.97;2.30;;;;;;;;;;5020655;28;20052;-75
2021/12/08 04:44:07;;;;;;;6.05;1.95;;;;;;;;;;5020681;28;20053;-77
2021/12/08 04:49:51;;;;;;;10.60;2.47;;;;;;;;;;5020238;28;20108;-77
2021/12/08 05:08:13;;;;;;;10.05;2.50;;;;;;;;;;5040021;28;20476;-77
2021/12/08 05:10:39;;;;;;;7.47;2.63;;;;;;;;;;5039060;28;20021;-77
2021/12/08 05:13:07;;;;;;;7.05;2.90;;;;;;;;;;5021603;28;20025;-76
2021/12/08 05:15:36;;;;;;;9.10;3.15;;;;;;;;;;5019324;28;20026;-75
2021/12/08 05:18:20;;;;;;;4.68;1.98;;;;;;;;;;5006337;28;20117;-73
2021/12/08 05:21:07;;;;;;;5.30;2.60;;;;;;;;;;5012278;28;20508;-74
2021/12/08 05:23:36;;;;;;;5.35;2.47;;;;;;;;;;5018210;28;20018;-76
2021/12/08 05:26:13;;;;;;;10.98;3.10;;;;;;;;;;5019268;28;20025;-76
2021/12/08 05:28:41;;;;;;;7.13;2.78;;;;;;;;;;5021368;28;20484;-76
2021/12/08 05:31:15;;;;;;;6.28;2.40;;;;;;;;;;5019463;28;20033;-73
2021/12/08 05:33:42;;;;;;;6.25;1.80;;;;;;;;;;5019967;28;20057;-76
2021/12/08 05:36:09;;;;;;;2.88;1.88;;;;;;;;;;5019030;28;20034;-74
2021/12/08 05:38:36;;;;;;;10.38;2.75;;;;;;;;;;5019608;28;20095;-79
2021/12/08 05:41:13;;;;;;;3.60;2.15;;;;;;;;;;5019563;28;20084;-78
2021/12/08 05:43:40;;;;;;;5.95;2.10;;;;;;;;;;5019041;28;20033;-77
2021/12/08 05:46:07;;;;;;;8.35;2.08;;;;;;;;;;5019084;28;20522;-76
2021/12/08 05:48:35;;;;;;;6.88;2.65;;;;;;;;;;5006203;28;20026;-74
2021/12/08 05:51:09;;;;;;;7.50;2.47;;;;;;;;;;5026728;28;20532;-74
2021/12/08 05:53:36;;;;;;;4.65;1.85;;;;;;;;;;5019448;28;20103;-75
2021/12/08 05:56:02;;;;;;;8.65;2.30;;;;;;;;;;5019504;28;20036;-74
2021/12/08 05:58:29;;;;;;;4.38;1.90;;;;;;;;;;5018880;28;20261;-76
2021/12/08 06:01:01;;;;;;;3.92;1.90;;;;;;;;;;5019839;28;20432;-75
2021/12/08 06:03:27;;;;;;;6.05;2.67;;;;;;;;;;5019700;28;20022;-76
2021/12/08 06:05:56;;;;;;;9.10;2.67;;;;;;;;;;5018502;28;20022;-76
2021/12/08 06:08:22;;;;;;;6.90;2.83;;;;;;;;;;5019046;28;20034;-75
2021/12/08 06:10:49;;;;;;;7.60;2.17;;;;;;;;;;5019155;28;20033;-77
2021/12/08 06:13:16;;;;;;;7.75;2.88;;;;;;;;;;5018935;28;20072;-73
2021/12/08 06:15:44;;;;;;;9.50;2.65;;;;;;;;;;5019138;28;20030;-74
2021/12/08 06:18:10;;;;;;;7.97;2.60;;;;;;;;;;5019593;28;20123;-78
2021/12/08 06:20:37;;;;;;;7.45;2.00;;;;;;;;;;5028212;28;20060;-76
2021/12/08 06:23:05;;;;;;;8.82;2.42;;;;;;;;;;5018973;28;20030;-77
2021/12/08 06:25:31;;;;;;;6.72;1.88;;;;;;;;;;5017756;28;20026;-77
2021/12/08 06:27:57;;;;;;;5.45;1.98;;;;;;;;;;5019192;28;20092;-76
2021/12/08 06:30:25;;;;;;;4.35;1.92;;;;;;;;;;5018601;28;20021;-77
2021/12/08 06:32:51;;;;;;;6.18;1.90;;;;;;;;;;5027425;28;20026;-76
2021/12/08 06:35:20;;;;;;;4.22;2.20;;;;;;;;;;5021003;28;20037;-76
2021/12/08 06:37:47;;;;;;;5.75;2.20;;;;;;;;;;5022422;28;20037;-78
2021/12/08 06:40:16;;;;;;;5.28;2.20;;;;;;;;;;5022860;28;20370;-75
2021/12/08 06:42:43;;;;;;;6.88;1.90;;;;;;;;;;5022314;28;20025;-77
2021/12/08 06:45:13;;;;;;;7.72;2.33;;;;;;;;;;5026097;28;20025;-75
2021/12/08 06:47:39;;;;;;;4.18;2.17;;;;;;;;;;5025491;28;20096;-77
2021/12/08 06:50:08;;;;;;;7.57;2.50;;;;;;;;;;5022842;28;20052;-75
2021/12/08 06:52:38;;;;;;;9.15;2.20;;;;;;;;;;5020595;28;20026;-73
2021/12/08 06:55:14;;;;;;;8.40;2.53;;;;;;;;;;5021769;28;20036;-75
2021/12/08 06:57:46;;;;;;;9.18;2.95;;;;;;;;;;5021861;28;20068;-76
2021/12/08 07:00:22;;;;;;;9.90;2.63;;;;;;;;;;5027252;28;20028;-74
2021/12/08 07:02:58;;;;;;;8.48;2.33;;;;;;;;;;5031232;28;20022;-74
2021/12/08 07:05:42;;;;;;;6.40;2.55;;;;;;;;;;5034375;28;20018;-75
2021/12/08 07:08:08;;;;;;;7.97;2.75;;;;;;;;;;5036752;28;20040;-77
2021/12/08 07:10:37;;;;;;;9.52;2.25;;;;;;;;;;5021575;28;20087;-77
2021/12/08 07:13:05;;;;;;;8.02;3.17;;;;;;;;;;5020014;28;20057;-76
2021/12/08 07:15:36;;;;;;;6.80;2.22;;;;;;;;;;5023168;28;20026;-77
2021/12/08 07:18:05;;;;;;;8.35;2.55;;;;;;;;;;5021766;28;20028;-74
2021/12/08 07:23:07;;;;;;;;;;;;;;;;;;5025185;28;20028;-74
2021/12/08 07:25:33;;;;;;;6.43;2.80;;;;;;;;;;5021367;28;20450;-77
2021/12/08 07:28:01;;;;;;;11.43;2.70;;;;;;;;;;5021413;28;20036;-76
2021/12/08 07:30:34;;;;;;;10.25;3.58;;;;;;;;;;5021093;28;20036;-74
2021/12/08 07:33:00;;;;;;;7.55;2.42;;;;;;;;;;5028963;28;20021;-77
2021/12/08 07:35:31;;;;;;;7.07;2.20;;;;;;;;;;5035023;28;20036;-76
2021/12/08 07:37:58;;;;;;;8.32;2.83;;;;;;;;;;5028732;28;20030;-76
2021/12/08 07:40:27;;;;;;;10.85;3.20;;;;;;;;;;5025404;28;20028;-76
2021/12/08 07:43:01;;;;;;;8.50;2.38;;;;;;;;;;5020480;28;20052;-76
2021/12/08 07:45:32;;;;;;;7.38;2.42;;;;;;;;;;5021317;28;20076;-78
2021/12/08 07:47:59;;;;;;;8.93;2.60;;;;;;;;;;5018853;28;20072;-78
2021/12/08 07:50:34;;;;;;;9.93;3.60;;;;;;;;;;5019322;28;20050;-79
2021/12/08 07:53:01;;;;;;;7.05;3.30;;;;;;;;;;5041138;28;20095;-76
2021/12/08 07:55:31;;;;;;;11.20;2.78;;;;;;;;;;5040741;28;20025;-77
2021/12/08 07:57:58;;;;;;;9.98;3.30;;;;;;;;;;5022056;28;20042;-80
2021/12/08 08:00:32;;;;;;;14.65;4.20;;;;;;;;;;5021202;28;20029;-79
2021/12/08 08:02:59;;;;;;;6.32;3.15;;;;;;;;;;5020529;28;20021;-77
2021/12/08 08:05:32;;;;;;;4.80;2.20;;;;;;;;;;5020119;28;20022;-78
2021/12/08 08:08:02;;;;;;;4.93;2.63;;;;;;;;;;5029485;28;20088;-74
2021/12/08 08:10:29;;;;;;;6.60;2.30;;;;;;;;;;5040874;28;20026;-75
2021/12/08 08:13:00;;;;;;;6.57;2.33;;;;;;;;;;5036013;28;20444;-77
2021/12/08 08:15:28;;;;;;;10.68;2.65;;;;;;;;;;5020421;28;20018;-78
2021/12/08 08:17:54;;;;;;;8.60;2.45;;;;;;;;;;5019864;28;20026;-78
2021/12/08 08:20:20;;;;;;;8.52;3.42;;;;;;;;;;5019772;28;20152;-75
2021/12/08 08:22:47;;;;;;;9.30;2.75;;;;;;;;;;5019117;28;20037;-77
2021/12/08 08:25:14;;;;;;;5.57;2.53;;;;;;;;;;5018197;28;20476;-78
2021/12/08 08:27:41;;;;;;;9.25;2.65;;;;;;;;;;5029216;28;20025;-77
2021/12/08 08:30:09;;;;;;;7.78;2.30;;;;;;;;;;5031078;28;20392;-77
2021/12/08 08:32:37;;;;;;;8.15;2.83;;;;;;;;;;5020327;28;20022;-79
2021/12/08 08:35:15;;;;;;;4.55;2.30;;;;;;;;;;5019688;28;20029;-79
2021/12/08 08:37:43;;;;;;;7.43;3.50;;;;;;;;;;5020066;28;20026;-78
2021/12/08 08:40:16;;;;;;;6.00;2.10;;;;;;;;;;5019966;28;20018;-78
2021/12/08 08:42:43;;;;;;;9.55;2.70;;;;;;;;;;5020115;28;20032;-76
2021/12/08 08:45:51;;;;;;;3.33;2.45;;;;;;;;;;5019355;28;20066;-76
2021/12/08 08:48:19;;;;;;;11.55;3.65;;;;;;;;;;4938343;29;20095;-77
2021/12/08 08:51:03;;;;;;;9.57;2.90;;;;;;;;;;4936998;29;20499;-77
2021/12/08 08:53:34;;;;;;;8.68;3.03;;;;;;;;;;4988106;28;20050;-77
2021/12/08 08:56:12;;;;;;;7.25;3.53;;;;;;;;;;5017378;28;20033;-77
2021/12/08 08:58:39;;;;;;;9.82;2.92;;;;;;;;;;5016229;28;20045;-76
2021/12/08 09:01:07;;;;;;;10.15;4.03;;;;;;;;;;5016388;28;20025;-76
2021/12/08 09:03:35;;;;;;;10.25;2.90;;;;;;;;;;5016555;28;20104;-76
2021/12/08 09:06:06;;;;;;;8.35;3.53;;;;;;;;;;5014496;28;20026;-76
2021/12/08 09:08:34;;;;;;;10.38;3.22;;;;;;;;;;5016610;28;20376;-76
2021/12/08 09:11:10;;;;;;;5.93;2.40;;;;;;;;;;5014260;28;20420;-75
2021/12/08 09:13:39;;;;;;;5.97;3.15;;;;;;;;;;5016561;28;20037;-76
2021/12/08 09:16:24;;;;;;;8.68;3.65;;;;;;;;;;5015446;28;20481;-75
2021/12/08 09:19:01;;;;;;;10.20;3.70;;;;;;;;;;5015171;28;20092;-76
2021/12/08 09:21:27;;;;;;;6.68;2.40;;;;;;;;;;5013495;28;20477;-77
2021/12/08 09:23:57;;;;;;;8.90;2.92;;;;;;;;;;5016210;28;20025;-74
2021/12/08 09:26:24;;;;;;;11.70;3.22;;;;;;;;;;5000853;28;20042;-77
2021/12/08 09:28:58;;;;;;;11.43;2.88;;;;;;;;;;4995508;28;20062;-77
2021/12/08 09:31:36;;;;;;;14.52;3.63;;;;;;;;;;4995712;28;20101;-76
2021/12/08 09:34:23;;;;;;;11.32;2.60;;;;;;;;;;4999100;28;20030;-75
2021/12/08 09:36:57;;;;;;;10.73;3.20;;;;;;;;;;4997379;28;20042;-76
2021/12/08 09:39:26;;;;;;;13.88;3.72;;;;;;;;;;4996337;28;20026;-77
2021/12/08 09:42:09;;;;;;;9.90;3.75;;;;;;;;;;4997449;28;20029;-76
2021/12/08 09:44:38;;;;;;;11.40;3.90;;;;;;;;;;4997355;28;20019;-77
2021/12/08 09:47:04;;;;;;;13.57;4.00;;;;;;;;;;4996925;28;20520;-76
2021/12/08 09:49:31;;;;;;;14.27;4.43;;;;;;;;;;4996178;28;20042;-76
2021/12/08 09:51:58;;;;;;;9.75;3.70;;;;;;;;;;4995404;28;20109;-76
2021/12/08 09:54:24;;;;;;;13.55;4.15;;;;;;;;;;4995824;28;20018;-74
2021/12/08 09:56:52;;;;;;;11.85;4.18;;;;;;;;;;4997636;28;20026;-77
2021/12/08 09:59:24;;;;;;;11.27;3.88;;;;;;;;;;4996046;28;20034;-78
2021/12/08 10:01:52;;;;;;;10.75;4.07;;;;;;;;;;4997781;28;20054;-76
2021/12/08 10:04:18;;;;;;;13.40;3.83;;;;;;;;;;4986848;28;20026;-76
2021/12/08 10:06:49;;;;;;;9.98;2.97;;;;;;;;;;4976493;28;20038;-76
2021/12/08 10:09:16;;;;;;;17.30;3.88;;;;;;;;;;5003037;28;20480;-77
2021/12/08 10:11:42;;;;;;;17.35;3.75;;;;;;;;;;5013186;28;20396;-77
2021/12/08 10:14:08;;;;;;;15.20;3.50;;;;;;;;;;4980122;28;20066;-76
2021/12/08 10:16:35;;;;;;;10.50;3.70;;;;;;;;;;4981099;28;20474;-75
2021/12/08 10:19:02;;;;;;;14.20;4.95;;;;;;;;;;4981121;28;20433;-76
2021/12/08 10:21:35;;;;;;;15.45;3.53;;;;;;;;;;4982160;28;20030;-76
2021/12/08 10:24:01;;;;;;;13.73;3.70;;;;;;;;;;4997407;28;20035;-79
2021/12/08 10:26:32;;;;;;;9.73;2.95;;;;;;;;;;5002163;28;20448;-75
2021/12/08 10:29:03;;;;;;;13.93;3.75;;;;;;;;;;4998243;28;20026;-76
2021/12/08 10:31:34;;;;;;;13.30;4.07;;;;;;;;;;5004864;28;20037;-76
2021/12/08 10:39:03;;;;;;;8.70;2.78;;;;;;;;;;4997608;28;20034;-77
2021/12/08 10:41:42;;;;;;;9.82;3.63;;;;;;;;;;4995261;28;20077;-77
2021/12/08 10:44:08;;;;;;;8.77;3.97;;;;;;;;;;5000162;28;20030;-77
2021/12/08 10:46:37;;;;;;;11.65;3.92;;;;;;;;;;4985452;28;20101;-79
2021/12/08 10:54:45;;;;;;;11.90;3.97;;;;;;;;;;5000341;28;20464;-76
2021/12/08 10:57:23;;;;;;;10.60;3.65;;;;;;;;;;5001275;28;20041;-77
2021/12/08 11:00:00;;;;;;;12.85;3.65;;;;;;;;;;4995521;28;20078;-78
2021/12/08 11:02:36;;;;;;;17.15;4.45;;;;;;;;;;5000871;28;20026;-77
2021/12/08 11:05:02;;;;;;;14.73;3.03;;;;;;;;;;5014114;28;20054;-76
2021/12/08 11:07:29;;;;;;;8.27;3.45;;;;;;;;;;5004840;28;20125;-76
2021/12/08 11:09:55;;;;;;;13.82;3.67;;;;;;;;;;5002085;28;20413;-74
2021/12/08 11:12:21;;;;;;;8.27;3.35;;;;;;;;;;5002957;28;20026;-75
2021/12/08 11:14:50;;;;;;;10.70;3.33;;;;;;;;;;5001157;28;20033;-75
2021/12/08 11:17:34;;;;;;;14.88;3.33;;;;;;;;;;5000598;28;20029;-76
2021/12/08 11:20:14;;;;;;;9.98;4.22;;;;;;;;;;5001439;28;20543;-77
2021/12/08 11:22:40;;;;;;;8.75;3.55;;;;;;;;;;5000726;28;20049;-74
2021/12/08 11:25:07;;;;;;;10.32;3.75;;;;;;;;;;5001685;28;20026;-76
2021/12/08 11:27:36;;;;;;;14.20;4.10;;;;;;;;;;5019610;28;20538;-76
2021/12/08 11:30:25;;;;;;;15.80;3.75;;;;;;;;;;5021597;28;20048;-78
2021/12/08 11:32:51;;;;;;;14.10;4.22;;;;;;;;;;5021717;28;20400;-77
2021/12/08 11:35:19;;;;;;;14.27;5.28;;;;;;;;;;5022339;28;20030;-76
2021/12/08 11:37:45;;;;;;;19.65;5.05;;;;;;;;;;4999113;28;20034;-75
2021/12/08 11:40:16;;;;;;;12.27;4.18;;;;;;;;;;4998034;28;20501;-77
2021/12/08 11:42:42;;;;;;;13.45;4.05;;;;;;;;;;4982070;28;20027;-77
2021/12/08 11:45:13;;;;;;;13.93;4.18;;;;;;;;;;4982722;28;20019;-76
2021/12/08 11:47:42;;;;;;;9.23;3.25;;;;;;;;;;4983707;28;20110;-74
2021/12/08 11:50:13;;;;;;;8.15;3.38;;;;;;;;;;4984776;28;20043;-75
2021/12/08 11:52:39;;;;;;;9.15;4.40;;;;;;;;;;4982176;28;20034;-75
2021/12/08 11:55:06;;;;;;;11.43;4.10;;;;;;;;;;5005304;28;20077;-76
2021/12/08 11:57:39;;;;;;;13.13;3.65;;;;;;;;;;4981435;28;20023;-75
2021/12/08 12:00:14;;;;;;;10.02;3.70;;;;;;;;;;4981953;28;20518;-76
2021/12/08 12:02:40;;;;;;;20.08;4.88;;;;;;;;;;4979898;28;20588;-76
2021/12/08 12:05:08;;;;;;;11.65;3.70;;;;;;;;;;4993477;28;20568;-77
2021/12/08 12:07:35;;;;;;;12.35;3.88;;;;;;;;;;4996023;28;20030;-74
2021/12/08 12:10:01;;;;;;;10.38;3.30;;;;;;;;;;4996594;28;20501;-78
2021/12/08 12:12:27;;;;;;;13.40;3.10;;;;;;;;;;4996168;28;20026;-79
2021/12/08 12:14:54;;;;;;;10.68;3.72;;;;;;;;;;5007410;28;20085;-74
2021/12/08 12:17:20;;;;;;;15.27;3.65;;;;;;;;;;5001569;28;20030;-75
2021/12/08 12:19:49;;;;;;;12.30;4.15;;;;;;;;;;5009429;28;20495;-77
2021/12/08 12:22:40;;;;;;;12.40;3.67;;;;;;;;;;5021636;28;20033;-78
2021/12/08 12:25:27;;;;;;;12.98;3.75;;;;;;;;;;5019635;28;20029;-77
2021/12/08 12:27:53;;;;;;;11.52;3.85;;;;;;;;;;5013608;28;20081;-79
2021/12/08 12:30:25;;;;;;;16.80;4.15;;;;;;;;;;5000894;28;20036;-76
2021/12/08 12:32:53;;;;;;;12.18;5.68;;;;;;;;;;4999624;28;20030;-77
2021/12/08 12:35:24;;;;;;;16.35;5.57;;;;;;;;;;4995201;28;20311;-78
2021/12/08 12:38:13;;;;;;;9.68;3.75;;;;;;;;;;4991375;28;20500;-76
2021/12/08 12:40:41;;;;;;;9.50;3.50;;;;;;;;;;5015267;28;20036;-77
2021/12/08 12:43:08;;;;;;;8.02;2.63;;;;;;;;;;5016817;28;20037;-76
2021/12/08 12:45:39;;;;;;;11.88;3.83;;;;;;;;;;4991975;28;20086;-78
2021/12/08 12:48:05;;;;;;;10.60;4.40;;;;;;;;;;4995673;28;20452;-78
2021/12/08 12:50:32;;;;;;;9.90;3.17;;;;;;;;;;4981500;28;20043;-77
2021/12/08 12:52:59;;;;;;;10.65;3.78;;;;;;;;;;4996574;28;20054;-76
2021/12/08 12:55:30;;;;;;;10.25;3.25;;;;;;;;;;4990075;28;20045;-76
2021/12/08 12:58:04;;;;;;;9.95;3.08;;;;;;;;;;5020305;28;20034;-78
2021/12/08 13:00:51;;;;;;;10.67;3.27;;;;;;;;;;5019655;28;20018;-76
2021/12/08 13:03:44;;;;;;;12.82;3.85;;;;;;;;;;5004460;28;20034;-77
2021/12/08 13:06:11;;;;;;;11.45;4.32;;;;;;;;;;4996848;28;20065;-76
2021/12/08 13:08:41;;;;;;;9.90;3.28;;;;;;;;;;4979785;28;20030;-75
2021/12/08 13:11:26;;;;;;;8.82;2.70;;;;;;;;;;4994226;28;20054;-76
2021/12/08 13:13:56;;;;;;;9.98;3.85;;;;;;;;;;5015866;28;20134;-76
2021/12/08 13:16:23;;;;;;;9.35;4.30;;;;;;;;;;5009786;28;20120;-76
2021/12/08 13:18:54;;;;;;;7.45;2.72;;;;;;;;;;5012234;28;20045;-77
2021/12/08 13:21:37;;;;;;;10.52;3.08;;;;;;;;;;4999848;28;20026;-74
2021/12/08 13:24:03;;;;;;;10.43;2.72;;;;;;;;;;4997182;28;20033;-76
2021/12/08 13:26:49;;;;;;;7.43;3.03;;;;;;;;;;4997155;28;20088;-77
2021/12/08 13:29:21;;;;;;;9.25;3.15;;;;;;;;;;5010518;28;20044;-75
2021/12/08 13:32:10;;;;;;;11.93;3.75;;;;;;;;;;5015752;28;20477;-75
2021/12/08 13:34:37;;;;;;;9.55;4.25;;;;;;;;;;5016901;28;20029;-77
2021/12/08 13:37:25;;;;;;;11.82;3.35;;;;;;;;;;5016377;28;20034;-75
2021/12/08 13:39:53;;;;;;;12.05;3.60;;;;;;;;;;5012173;28;20054;-74
2021/12/08 13:42:30;;;;;;;9.68;3.38;;;;;;;;;;4995174;28;20050;-76
2021/12/08 13:45:01;;;;;;;16.52;3.22;;;;;;;;;;4997818;28;20030;-76
2021/12/08 13:47:30;;;;;;;13.00;3.25;;;;;;;;;;4996136;28;20081;-77
2021/12/08 13:49:58;;;;;;;9.75;3.03;;;;;;;;;;5000677;28;20554;-75
2021/12/08 13:52:28;;;;;;;9.80;2.88;;;;;;;;;;5016167;28;20026;-76
2021/12/08 13:54:57;;;;;;;9.90;2.70;;;;;;;;;;5015872;28;20523;-76
2021/12/08 13:57:34;;;;;;;11.73;3.22;;;;;;;;;;5016476;28;20040;-77
2021/12/08 14:00:06;;;;;;;8.77;3.35;;;;;;;;;;5015326;28;20065;-75
2021/12/08 14:02:38;;;;;;;13.05;4.10;;;;;;;;;;5016596;28;20018;-73
2021/12/08 14:05:04;;;;;;;8.38;3.33;;;;;;;;;;5017391;28;20022;-74
2021/12/08 14:07:31;;;;;;;15.43;3.58;;;;;;;;;;5018196;28;20030;-77
2021/12/08 14:09:58;;;;;;;9.18;3.17;;;;;;;;;;5016506;28;20424;-78
2021/12/08 14:12:24;;;;;;;14.55;4.35;;;;;;;;;;5016904;28;20017;-77
2021/12/08 14:14:54;;;;;;;14.75;3.83;;;;;;;;;;5002623;28;20033;-76
2021/12/08 14:17:29;;;;;;;12.98;4.13;;;;;;;;;;5008968;28;20408;-75
2021/12/08 14:19:56;;;;;;;7.78;4.22;;;;;;;;;;5015852;28;20026;-77
2021/12/08 14:22:22;;;;;;;14.52;3.65;;;;;;;;;;4999689;28;20027;-76
2021/12/08 14:24:55;;;;;;;15.85;4.07;;;;;;;;;;5012121;28;20026;-77
2021/12/08 14:27:22;;;;;;;13.80;4.68;;;;;;;;;;5011283;28;20473;-77
2021/12/08 14:29:48;;;;;;;35.88;6.80;;;;;;;;;;4991792;28;20038;-75
2021/12/08 14:32:17;;;;;;;13.10;3.33;;;;;;;;;;4993350;28;20441;-76
2021/12/08 14:34:43;;;;;;;8.27;3.30;;;;;;;;;;4993024;28;20023;-75
2021/12/08 14:37:14;;;;;;;13.98;3.22;;;;;;;;;;4986913;28;20027;-73
2021/12/08 14:39:48;;;;;;;16.80;4.68;;;;;;;;;;4995470;28;20022;-72
2021/12/08 14:42:16;;;;;;;12.48;4.40;;;;;;;;;;5005541;28;20059;-76
2021/12/08 14:44:43;;;;;;;12.70;4.65;;;;;;;;;;5002239;28;20500;-72
2021/12/08 14:47:19;;;;;;;11.23;3.80;;;;;;;;;;4984387;28;20417;-76
2021/12/08 14:50:12;;;;;;;9.98;3.72;;;;;;;;;;4984157;28;20046;-74
2021/12/08 14:52:39;;;;;;;10.85;4.95;;;;;;;;;;4988978;28;20045;-73
2021/12/08 14:55:07;;;;;;;9.50;3.20;;;;;;;;;;5001643;28;20019;-75
2021/12/08 14:57:39;;;;;;;10.35;3.65;;;;;;;;;;4991698;28;20069;-73
2021/12/08 15:00:12;;;;;;;12.18;4.90;;;;;;;;;;5004119;28;20521;-72
2021/12/08 15:02:45;;;;;;;15.90;4.50;;;;;;;;;;4989085;28;20034;-76
2021/12/08 15:05:18;;;;;;;9.60;3.90;;;;;;;;;;4987437;28;20035;-75
2021/12/08 15:07:44;;;;;;;11.45;3.58;;;;;;;;;;5006567;28;20022;-77
2021/12/08 15:10:13;;;;;;;10.60;5.30;;;;;;;;;;5007708;28;20564;-75
2021/12/08 15:12:41;;;;;;;27.30;14.20;;;;;;;;;;5006135;28;20053;-73
2021/12/08 15:15:15;;;;;;;74.63;37.33;;;;;;;;;;5002220;28;20027;-76
2021/12/08 15:17:41;;;;;;;53.42;26.88;;;;;;;;;;5009156;28;20485;-73
2021/12/08 15:20:31;;;;;;;34.22;18.50;;;;;;;;;;5009408;28;20026;-72
2021/12/08 15:23:00;;;;;;;118.30;77.75;;;;;;;;;;5003005;28;20049;-75
2021/12/08 15:25:27;;;;;;;21.23;13.75;;;;;;;;;;5004997;28;20054;-73
2021/12/08 15:27:57;;;;;;;49.05;27.63;;;;;;;;;;5016730;28;20033;-74
2021/12/08 15:30:41;;;;;;;13.63;9.48;;;;;;;;;;5027598;28;20029;-74
2021/12/08 15:33:09;;;;;;;25.75;16.83;;;;;;;;;;5027607;28;20040;-73
2021/12/08 15:35:36;;;;;;;18.15;11.55;;;;;;;;;;5025105;28;20026;-74
2021/12/08 15:38:03;;;;;;;10.80;6.22;;;;;;;;;;5009216;28;20066;-73
2021/12/08 15:40:36;;;;;;;15.45;7.78;;;;;;;;;;4989609;28;20030;-76
2021/12/08 15:43:03;;;;;;;9.75;5.80;;;;;;;;;;5023335;28;20081;-73
2021/12/08 15:45:43;;;;;;;9.60;4.72;;;;;;;;;;5025880;28;20026;-78